East Butler, Pennsylvania
Current Conditions -  °F | °C
As of 11:55 AM on Tuesday 27 Jan 2015 (Local Time) from KBTP Reporting Station
Overcast Overcast  
Wind Chill: -10°   Ceiling: 5500
Heat Index: -6°   Visibility: 10mi
Dew Point: -11°   Wind: 6mph
Humidity: 68%   Direction: 270°W
Pressure: 29.93"   Gusts: NA
Location:  40.88°N, 79.85°W
Report Text: KBTP 271655Z AUTO 27005KT 10SM OVC055 M06/M11 A2993 RMK AO1
Loading
Personal Weather Stations






























Interactive Weather Map New forecast layout! Learn more

10-Day Weather Forecast

Advertisements
Track Severe Weather on mobile